Time;durP1;ratioP1;P1;durP2;ratioP2;P2;SDS_P1;SDS_P2;PMS_P1;PMS_P2;Temp;Humidity;BMP_temperature;BMP_pressure;BME280_temperature;BME280_humidity;BME280_pressure;Samples;Min_cycle;Max_cycle;Signal;HPM_P1;HPM_P2
2023/03/01 00:01:24;;;;;;;17.48;7.15;;;;;;;7.89;48.45;102999.28;5101540;28;20025;-51
2023/03/01 00:03:49;;;;;;;12.88;6.22;;;;;;;7.87;48.69;102990.56;5100782;28;20032;-47
2023/03/01 00:06:15;;;;;;;14.40;6.47;;;;;;;7.85;48.59;102992.50;5097894;28;20035;-54
2023/03/01 00:08:41;;;;;;;13.48;7.07;;;;;;;7.86;48.96;102993.34;5096787;28;20043;-50
2023/03/01 00:11:13;;;;;;;12.27;6.25;;;;;;;7.80;48.64;102994.66;5096736;28;20088;-50
2023/03/01 00:13:39;;;;;;;14.27;6.40;;;;;;;7.80;49.05;102996.50;5097784;28;20048;-46
2023/03/01 00:16:07;;;;;;;15.13;6.75;;;;;;;7.77;48.96;102994.91;5099103;28;20032;-46
2023/03/01 00:18:33;;;;;;;10.93;5.95;;;;;;;7.83;48.89;102997.06;5095351;28;20032;-48
2023/03/01 00:20:59;;;;;;;12.87;7.27;;;;;;;7.58;49.31;102990.22;5100175;28;20097;-46
2023/03/01 00:23:25;;;;;;;13.38;6.53;;;;;;;7.77;49.09;102992.25;5103317;28;20032;-49
2023/03/01 00:25:51;;;;;;;12.43;6.45;;;;;;;7.78;48.95;103001.09;5095700;28;20065;-48
2023/03/01 00:28:17;;;;;;;10.27;5.47;;;;;;;7.70;49.09;102999.88;5103856;28;20064;-48
2023/03/01 00:30:42;;;;;;;14.05;6.43;;;;;;;7.67;49.25;102991.31;5101394;28;20040;-48
2023/03/01 00:33:08;;;;;;;12.27;6.97;;;;;;;7.73;49.25;102988.16;5100439;28;20062;-50
2023/03/01 00:35:34;;;;;;;11.43;5.10;;;;;;;7.68;49.57;102993.00;5099368;28;20895;-49
2023/03/01 00:37:59;;;;;;;9.90;5.93;;;;;;;7.64;49.71;102981.75;5095940;28;20040;-50
2023/03/01 00:40:27;;;;;;;13.27;7.05;;;;;;;7.69;49.66;102986.72;5099384;28;20040;-50
2023/03/01 00:42:53;;;;;;;13.70;6.32;;;;;;;7.69;49.45;102984.03;5075923;28;20060;-47
2023/03/01 00:45:18;;;;;;;10.63;6.07;;;;;;;7.67;49.81;102983.31;5100122;28;20033;-48
2023/03/01 00:47:44;;;;;;;12.40;5.57;;;;;;;7.67;49.74;102980.66;5100569;28;20036;-50
2023/03/01 00:50:10;;;;;;;12.23;6.63;;;;;;;7.57;49.83;102985.88;5095368;28;20051;-52
2023/03/01 00:52:36;;;;;;;11.85;6.75;;;;;;;7.62;49.85;102983.69;5099459;28;20035;-49
2023/03/01 00:55:03;;;;;;;11.17;4.33;;;;;;;7.54;49.81;102986.13;5095163;28;20028;-49
2023/03/01 00:57:29;;;;;;;10.35;5.38;;;;;;;7.59;50.21;102987.44;5110835;28;20100;-52
2023/03/01 00:59:54;;;;;;;10.03;5.97;;;;;;;7.41;50.50;102976.44;5095784;28;20032;-50
2023/03/01 01:02:20;;;;;;;22.43;6.20;;;;;;;7.38;50.83;102978.47;5114118;28;20043;-48
2023/03/01 01:04:46;;;;;;;12.60;6.47;;;;;;;7.37;50.89;102975.00;5081626;28;20044;-47
2023/03/01 01:07:13;;;;;;;12.43;6.70;;;;;;;7.22;51.22;102968.19;5098223;28;20171;-51
2023/03/01 01:09:39;;;;;;;11.07;5.97;;;;;;;7.37;51.14;102963.47;5098689;28;20036;-49
2023/03/01 01:12:04;;;;;;;11.93;5.15;;;;;;;7.32;51.24;102962.03;5101171;28;20060;-50
2023/03/01 01:14:30;;;;;;;11.30;6.05;;;;;;;7.30;51.29;102960.47;5096344;28;20028;-52
2023/03/01 01:16:56;;;;;;;11.03;5.83;;;;;;;7.24;51.66;102959.16;5097704;28;20046;-51
2023/03/01 01:19:23;;;;;;;12.80;6.55;;;;;;;7.16;51.85;102961.56;5084785;28;20024;-48
2023/03/01 01:21:49;;;;;;;12.65;8.60;;;;;;;7.07;52.06;102954.28;5077638;28;20039;-50
2023/03/01 01:24:15;;;;;;;10.88;6.63;;;;;;;7.09;52.15;102944.38;5096461;28;20036;-47
2023/03/01 01:26:42;;;;;;;13.50;6.82;;;;;;;7.20;51.95;102949.72;5101306;28;20028;-49
2023/03/01 01:29:08;;;;;;;16.02;6.90;;;;;;;7.06;52.02;102936.63;5111002;28;20040;-49
2023/03/01 01:31:35;;;;;;;14.32;7.35;;;;;;;7.03;52.28;102937.72;5078605;28;20032;-51
2023/03/01 01:34:04;;;;;;;14.55;7.07;;;;;;;7.11;52.10;102939.78;5095391;28;20086;-50
2023/03/01 01:36:30;;;;;;;15.48;6.55;;;;;;;6.98;52.64;102935.44;5098826;28;20078;-49
2023/03/01 01:38:56;;;;;;;11.45;5.78;;;;;;;6.97;52.64;102936.41;5100048;28;20032;-48
2023/03/01 01:41:23;;;;;;;11.82;6.03;;;;;;;6.96;52.68;102939.16;5099495;28;20039;-47
2023/03/01 01:44:14;;;;;;;16.50;7.65;;;;;;;6.87;53.17;102936.25;5097501;28;20036;-47
2023/03/01 01:47:00;;;;;;;10.50;6.38;;;;;;;6.93;53.63;102936.75;5094450;28;20040;-55
2023/03/01 01:49:48;;;;;;;11.98;7.53;;;;;;;6.76;54.28;102928.25;5078422;28;20100;-49
2023/03/01 01:52:24;;;;;;;14.43;6.95;;;;;;;6.83;54.12;102921.53;5097301;28;20033;-52
2023/03/01 01:54:55;;;;;;;16.38;7.65;;;;;;;6.79;54.57;102924.53;5099776;28;20058;-48
2023/03/01 01:57:43;;;;;;;13.43;6.38;;;;;;;6.71;54.95;102925.97;5079462;28;20028;-49
2023/03/01 02:00:15;;;;;;;16.77;7.78;;;;;;;6.71;55.40;102919.78;5107698;28;20084;-49
2023/03/01 02:02:43;;;;;;;18.02;7.90;;;;;;;6.96;54.67;102923.19;5079236;28;20020;-52
2023/03/01 02:05:16;;;;;;;19.35;7.70;;;;;;;6.70;55.23;102921.63;5102504;28;20039;-51
2023/03/01 02:07:43;;;;;;;13.88;7.07;;;;;;;6.71;55.71;102923.31;5080624;28;20054;-47
2023/03/01 02:10:09;;;;;;;13.02;7.05;;;;;;;6.61;56.10;102919.66;5104526;28;20124;-47
2023/03/01 02:12:35;;;;;;;14.93;7.45;;;;;;;6.49;56.55;102917.94;5098750;28;20063;-50
2023/03/01 02:15:01;;;;;;;14.68;7.72;;;;;;;6.56;56.44;102921.81;5104050;28;20027;-51
2023/03/01 02:17:27;;;;;;;16.27;7.53;;;;;;;6.54;56.18;102915.78;5081654;28;20040;-47
2023/03/01 02:20:23;;;;;;;14.10;6.88;;;;;;;6.55;56.22;102918.31;5083702;28;20024;-49
2023/03/01 02:22:48;;;;;;;11.65;6.43;;;;;;;6.51;56.22;102921.34;5084371;28;20040;-49
2023/03/01 02:25:20;;;;;;;14.43;7.15;;;;;;;6.49;56.09;102909.97;5079600;28;20526;-48
2023/03/01 02:28:10;;;;;;;11.45;6.82;;;;;;;6.52;56.26;102912.41;5096867;28;20033;-51
2023/03/01 02:30:36;;;;;;;14.63;6.30;;;;;;;6.38;56.45;102911.63;5097745;28;20055;-51
2023/03/01 02:33:04;;;;;;;11.25;6.45;;;;;;;6.37;56.37;102904.63;5100990;28;20093;-51
2023/03/01 02:35:33;;;;;;;12.07;6.82;;;;;;;6.42;56.30;102904.28;5083277;28;20051;-50
2023/03/01 02:38:01;;;;;;;14.20;6.63;;;;;;;6.40;56.14;102909.69;5083817;28;20028;-51
2023/03/01 02:40:30;;;;;;;16.10;7.15;;;;;;;6.39;56.53;102901.84;5080997;28;20059;-48
2023/03/01 02:42:58;;;;;;;14.93;7.43;;;;;;;6.33;56.74;102911.13;5102552;28;20035;-54
2023/03/01 02:45:25;;;;;;;14.50;6.22;;;;;;;6.48;56.09;102905.63;5082138;28;20055;-50
2023/03/01 02:47:56;;;;;;;15.15;6.00;;;;;;;6.39;56.22;102892.06;5080191;28;20044;-51
2023/03/01 02:50:30;;;;;;;13.98;6.10;;;;;;;6.39;56.45;102897.38;5104914;28;20056;-50
2023/03/01 02:53:11;;;;;;;14.45;6.45;;;;;;;6.41;56.42;102894.59;5104508;28;20032;-48
2023/03/01 02:55:38;;;;;;;12.50;6.65;;;;;;;6.23;56.82;102896.81;5084789;28;20040;-47
2023/03/01 02:58:04;;;;;;;13.77;6.47;;;;;;;6.32;57.04;102891.66;5079536;28;20028;-49
2023/03/01 03:00:46;;;;;;;12.18;6.65;;;;;;;6.38;56.86;102889.53;5114566;28;20031;-48
2023/03/01 03:03:18;;;;;;;17.80;6.50;;;;;;;6.31;57.22;102889.16;5085931;28;20028;-48
2023/03/01 03:05:45;;;;;;;15.23;7.07;;;;;;;6.10;57.57;102892.44;5098405;28;20047;-51
2023/03/01 03:08:11;;;;;;;12.33;7.13;;;;;;;6.30;57.33;102900.75;5100520;28;20036;-49
2023/03/01 03:10:39;;;;;;;12.00;6.47;;;;;;;6.33;57.69;102897.84;5086932;28;20032;-48
2023/03/01 03:13:08;;;;;;;14.30;6.85;;;;;;;6.24;57.29;102893.25;5102142;28;20028;-47
2023/03/01 03:15:35;;;;;;;13.70;6.88;;;;;;;6.31;57.07;102897.13;5099112;28;20028;-52
2023/03/01 03:18:04;;;;;;;18.35;7.32;;;;;;;6.27;57.05;102885.84;5077597;28;20048;-48
2023/03/01 03:20:30;;;;;;;11.27;5.93;;;;;;;6.32;57.04;102890.84;5104256;28;20044;-50
2023/03/01 03:22:58;;;;;;;11.75;6.47;;;;;;;6.35;56.70;102887.94;5101787;28;20252;-49
2023/03/01 03:25:25;;;;;;;13.75;5.57;;;;;;;6.35;56.76;102884.44;5100531;28;20036;-48
2023/03/01 03:27:56;;;;;;;15.07;5.60;;;;;;;6.40;56.45;102880.44;5098040;28;20037;-49
2023/03/01 03:30:30;;;;;;;10.02;5.88;;;;;;;6.34;56.80;102886.25;5096175;28;20096;-50
2023/03/01 03:32:58;;;;;;;11.88;5.97;;;;;;;6.45;56.32;102886.25;5101383;28;20032;-48
2023/03/01 03:35:29;;;;;;;12.05;7.00;;;;;;;6.42;56.45;102883.00;5095625;28;20052;-50
2023/03/01 03:38:02;;;;;;;13.52;5.95;;;;;;;6.41;56.39;102882.16;5094664;28;20082;-49
2023/03/01 03:40:37;;;;;;;13.90;6.07;;;;;;;6.40;56.46;102884.94;5101123;28;20083;-49
2023/03/01 03:43:05;;;;;;;13.57;5.97;;;;;;;6.35;56.87;102879.13;5100525;28;20062;-52
2023/03/01 03:45:33;;;;;;;11.45;5.95;;;;;;;6.17;57.12;102877.75;5096021;28;20036;-49
2023/03/01 03:47:59;;;;;;;11.30;6.03;;;;;;;6.14;57.21;102880.63;5096042;28;20495;-50
2023/03/01 03:50:25;;;;;;;12.35;6.40;;;;;;;5.95;57.76;102874.97;5102776;28;20040;-49
2023/03/01 03:52:51;;;;;;;14.57;6.57;;;;;;;5.92;58.11;102873.41;5097075;28;20131;-54
2023/03/01 03:55:19;;;;;;;12.75;6.30;;;;;;;5.87;58.47;102875.53;5106801;28;20036;-50
2023/03/01 03:57:51;;;;;;;12.15;6.68;;;;;;;5.87;58.36;102881.69;5101560;28;20039;-48
2023/03/01 04:00:18;;;;;;;13.90;7.40;;;;;;;5.83;58.77;102874.94;5096904;28;20032;-51
2023/03/01 04:02:45;;;;;;;12.25;6.78;;;;;;;5.89;58.72;102874.47;5096510;28;20041;-50
2023/03/01 04:05:14;;;;;;;13.88;6.50;;;;;;;5.78;59.46;102870.91;5098744;28;20061;-52
2023/03/01 04:07:40;;;;;;;14.18;6.55;;;;;;;5.82;59.63;102862.63;5100421;28;20069;-50
2023/03/01 04:10:09;;;;;;;15.52;6.38;;;;;;;5.72;59.68;102861.59;5103987;28;20036;-47
2023/03/01 04:12:35;;;;;;;11.25;5.70;;;;;;;5.80;59.44;102861.03;5101137;28;20028;-49
2023/03/01 04:15:12;;;;;;;17.38;6.82;;;;;;;5.78;59.37;102866.47;5101113;28;20044;-47
2023/03/01 04:17:45;;;;;;;14.95;6.20;;;;;;;5.73;59.77;102864.16;5101387;28;20044;-52
2023/03/01 04:20:13;;;;;;;16.33;6.63;;;;;;;5.77;60.00;102864.78;5096277;28;20060;-49
2023/03/01 04:22:40;;;;;;;16.48;6.38;;;;;;;5.69;59.99;102867.13;5097077;28;20055;-49
2023/03/01 04:25:06;;;;;;;;;;;;;;;5.90;59.04;102864.72;5100827;28;20088;-48
2023/03/01 04:27:35;;;;;;;13.88;6.35;;;;;;;5.79;58.97;102873.47;5099616;28;19916;-53
2023/03/01 04:30:05;;;;;;;11.50;6.05;;;;;;;5.62;59.59;102865.91;5096368;28;20040;-48
2023/03/01 04:32:31;;;;;;;14.15;7.40;;;;;;;5.68;59.65;102862.78;5097933;28;20028;-51
2023/03/01 04:34:57;;;;;;;10.43;5.75;;;;;;;5.67;59.85;102858.44;5109799;28;20031;-47
2023/03/01 04:37:23;;;;;;;12.40;6.55;;;;;;;5.67;59.88;102861.94;5103966;28;20032;-48
2023/03/01 04:39:49;;;;;;;13.38;7.05;;;;;;;5.73;60.14;102857.97;5097437;28;20055;-48
2023/03/01 04:42:16;;;;;;;17.38;6.30;;;;;;;5.76;60.31;102849.78;5094684;28;20040;-48
2023/03/01 04:44:43;;;;;;;11.40;5.72;;;;;;;5.66;60.56;102851.44;5099495;28;20040;-48
2023/03/01 04:47:08;;;;;;;11.68;6.53;;;;;;;5.79;60.52;102852.22;5104279;28;20034;-48
2023/03/01 04:49:34;;;;;;;12.25;6.15;;;;;;;5.81;60.18;102857.41;5097810;28;20077;-48
2023/03/01 04:52:01;;;;;;;12.60;6.67;;;;;;;5.87;60.02;102851.63;5094009;28;20041;-49
2023/03/01 04:54:29;;;;;;;17.02;6.07;;;;;;;5.87;59.96;102852.50;5099171;28;20284;-51
2023/03/01 04:56:54;;;;;;;14.38;6.68;;;;;;;5.82;60.02;102856.44;5096709;28;20044;-47
2023/03/01 04:59:23;;;;;;;14.60;7.17;;;;;;;5.75;60.20;102845.44;5096837;28;20036;-52
2023/03/01 05:01:50;;;;;;;16.45;6.40;;;;;;;5.74;60.09;102849.91;5099465;28;20077;-51
2023/03/01 05:04:17;;;;;;;14.20;5.93;;;;;;;5.79;60.09;102841.59;5102222;28;20039;-51
2023/03/01 05:06:43;;;;;;;25.92;13.45;;;;;;;5.82;59.94;102844.03;5099908;28;20059;-51
2023/03/01 05:09:09;;;;;;;12.43;6.18;;;;;;;5.77;60.38;102832.91;5097665;28;20106;-51
2023/03/01 05:11:35;;;;;;;11.30;5.07;;;;;;;5.65;60.60;102829.34;5099508;28;20032;-48
2023/03/01 05:14:02;;;;;;;14.65;6.13;;;;;;;5.59;61.49;102822.69;5103874;28;20051;-47
2023/03/01 05:16:27;;;;;;;14.20;7.32;;;;;;;5.57;61.81;102816.66;5101641;28;20032;-49
2023/03/01 05:18:55;;;;;;;12.97;6.03;;;;;;;5.47;62.28;102815.63;5098082;28;20043;-47
2023/03/01 05:21:21;;;;;;;13.90;6.88;;;;;;;5.57;61.84;102805.16;5102066;28;20101;-46
2023/03/01 05:23:47;;;;;;;13.68;6.90;;;;;;;5.60;61.57;102800.50;5095600;28;20067;-48
2023/03/01 05:26:13;;;;;;;15.10;7.43;;;;;;;5.59;61.46;102798.81;5101751;28;20033;-50
2023/03/01 05:28:39;;;;;;;18.00;7.68;;;;;;;5.57;61.34;102790.09;5101065;28;20088;-49
2023/03/01 05:31:09;;;;;;;13.60;6.60;;;;;;;5.41;61.69;102790.38;5099420;28;20029;-49
2023/03/01 05:33:39;;;;;;;14.55;7.47;;;;;;;5.64;61.40;102792.28;5096063;28;20048;-49
2023/03/01 05:36:07;;;;;;;13.23;6.95;;;;;;;5.59;61.58;102793.50;5100691;28;20040;-49
2023/03/01 05:38:33;;;;;;;13.43;6.68;;;;;;;5.64;61.21;102785.16;5099579;28;20029;-53
2023/03/01 05:40:58;;;;;;;18.75;7.72;;;;;;;5.74;60.69;102791.50;5100639;28;20043;-48
2023/03/01 05:43:24;;;;;;;15.48;7.07;;;;;;;5.64;60.82;102776.38;5100680;28;20028;-48
2023/03/01 05:45:51;;;;;;;10.43;5.72;;;;;;;5.73;60.81;102773.00;5098116;28;20032;-52
2023/03/01 05:48:16;;;;;;;16.37;5.83;;;;;;;5.67;60.76;102769.03;5100134;28;20067;-47
2023/03/01 05:50:44;;;;;;;11.00;5.67;;;;;;;5.60;60.58;102763.31;5100469;28;20028;-52
2023/03/01 05:53:14;;;;;;;15.82;5.30;;;;;;;5.69;60.42;102768.91;5097729;28;20296;-48
2023/03/01 05:55:41;;;;;;;12.07;5.63;;;;;;;5.74;60.26;102767.59;5096700;28;20031;-52
2023/03/01 05:58:07;;;;;;;;;;;;;;;5.80;60.21;102774.25;5099697;28;20044;-48
2023/03/01 06:00:34;;;;;;;14.95;5.07;;;;;;;5.77;60.15;102773.63;5096382;28;19919;-48
2023/03/01 06:03:00;;;;;;;12.10;5.60;;;;;;;5.50;61.17;102764.97;5103259;28;20086;-49
2023/03/01 06:05:26;;;;;;;10.95;5.43;;;;;;;5.64;60.84;102763.09;5095946;28;20063;-54
2023/03/01 06:07:52;;;;;;;9.15;5.15;;;;;;;5.60;60.83;102768.63;5095593;28;20055;-49
2023/03/01 06:10:20;;;;;;;11.13;5.22;;;;;;;5.78;60.54;102770.88;5100502;28;20041;-49
2023/03/01 06:12:46;;;;;;;9.30;5.40;;;;;;;5.74;60.91;102774.69;5102270;28;20044;-48
2023/03/01 06:15:15;;;;;;;14.68;6.05;;;;;;;5.86;60.32;102776.44;5098438;28;20038;-52
2023/03/01 06:17:42;;;;;;;12.75;5.53;;;;;;;5.85;60.42;102777.41;5100362;28;20040;-53
2023/03/01 06:20:14;;;;;;;10.10;5.55;;;;;;;5.95;59.89;102788.19;5097656;28;20035;-51
2023/03/01 06:22:40;;;;;;;10.18;5.47;;;;;;;5.88;59.85;102786.94;5102081;28;20123;-49
2023/03/01 06:25:06;;;;;;;12.18;5.53;;;;;;;5.73;60.22;102783.63;5098702;28;20039;-52
2023/03/01 06:27:31;;;;;;;12.43;5.47;;;;;;;5.66;60.86;102782.41;5103163;28;20047;-51
2023/03/01 06:29:57;;;;;;;16.30;6.23;;;;;;;5.74;60.93;102786.19;5104255;28;20032;-49
2023/03/01 06:32:22;;;;;;;9.13;5.03;;;;;;;5.80;60.79;102784.88;5097239;28;20032;-46
2023/03/01 06:34:49;;;;;;;9.90;4.72;;;;;;;5.81;60.92;102781.25;5102067;28;20032;-46
2023/03/01 06:37:15;;;;;;;11.48;5.55;;;;;;;5.64;61.39;102779.03;5097206;28;20028;-51
2023/03/01 06:39:40;;;;;;;13.27;4.82;;;;;;;5.76;61.10;102771.94;5104691;28;20031;-50
2023/03/01 06:42:07;;;;;;;7.10;3.63;;;;;;;5.88;60.99;102776.31;5099382;28;20124;-52
2023/03/01 06:44:33;;;;;;;12.43;6.78;;;;;;;5.88;60.51;102779.81;5103568;28;20030;-51
2023/03/01 06:46:59;;;;;;;14.55;6.28;;;;;;;5.93;60.55;102779.50;5098608;28;20036;-53
2023/03/01 06:49:25;;;;;;;13.80;6.37;;;;;;;5.93;60.50;102774.19;5102681;28;20047;-54
2023/03/01 06:51:50;;;;;;;11.17;5.93;;;;;;;5.91;60.69;102780.56;5101456;28;20031;-51
2023/03/01 06:54:17;;;;;;;17.33;6.87;;;;;;;5.88;60.91;102784.28;5086888;28;20028;-51
2023/03/01 06:56:43;;;;;;;13.07;6.60;;;;;;;5.73;61.54;102791.59;5101158;28;20544;-51
2023/03/01 06:59:08;;;;;;;18.67;6.65;;;;;;;6.02;60.87;102791.25;5099504;28;20044;-47
2023/03/01 07:01:34;;;;;;;12.57;5.37;;;;;;;6.14;60.74;102782.31;5104415;28;20032;-53
2023/03/01 07:03:59;;;;;;;12.98;6.03;;;;;;;6.10;60.74;102786.19;5103274;28;20095;-54
2023/03/01 07:06:25;;;;;;;10.23;5.07;;;;;;;5.86;61.64;102789.72;5101157;28;20055;-49
2023/03/01 07:08:50;;;;;;;14.30;6.90;;;;;;;6.08;61.07;102787.25;5106338;28;20029;-50
2023/03/01 07:11:16;;;;;;;13.55;5.20;;;;;;;6.08;61.05;102785.47;5099397;28;20036;-46
2023/03/01 07:13:42;;;;;;;12.80;5.95;;;;;;;6.22;60.63;102794.16;5103357;28;20039;-48
2023/03/01 07:16:08;;;;;;;11.33;5.90;;;;;;;6.43;60.15;102797.81;5105013;28;20032;-50
2023/03/01 07:18:33;;;;;;;18.05;6.32;;;;;;;6.33;60.29;102794.19;5086575;28;20032;-53
2023/03/01 07:21:04;;;;;;;12.15;6.93;;;;;;;6.53;60.02;102794.47;5105661;28;20042;-48
2023/03/01 07:23:30;;;;;;;13.82;5.55;;;;;;;6.58;59.60;102793.13;5101317;28;20088;-50
2023/03/01 07:25:56;;;;;;;12.30;5.80;;;;;;;6.52;59.84;102795.44;5101138;28;20044;-51
2023/03/01 07:28:25;;;;;;;13.10;5.73;;;;;;;6.51;60.16;102788.41;5101431;28;20044;-49
2023/03/01 07:30:50;;;;;;;18.98;6.43;;;;;;;6.63;59.63;102794.59;5100466;28;20051;-47
2023/03/01 07:33:16;;;;;;;12.23;6.00;;;;;;;6.72;59.70;102789.38;5103082;28;20036;-47
2023/03/01 07:35:42;;;;;;;14.25;6.05;;;;;;;6.71;59.49;102792.16;5101619;28;20052;-51
2023/03/01 07:38:08;;;;;;;14.30;5.90;;;;;;;6.74;59.55;102792.75;5104584;28;20051;-49
2023/03/01 07:40:34;;;;;;;14.20;6.20;;;;;;;6.74;59.50;102790.09;5106144;28;20028;-50
2023/03/01 07:43:01;;;;;;;14.95;6.65;;;;;;;6.86;59.47;102793.59;5099157;28;20063;-48
2023/03/01 07:45:27;;;;;;;;;;;;;;;6.84;59.76;102787.56;5100639;28;20080;-48
2023/03/01 07:47:53;;;;;;;11.90;6.28;;;;;;;6.95;59.53;102796.47;5102144;28;19920;-51
2023/03/01 07:50:19;;;;;;;13.48;6.60;;;;;;;7.14;59.01;102801.16;5099629;28;20056;-48
2023/03/01 07:52:46;;;;;;;15.48;7.15;;;;;;;7.34;58.90;102806.69;5102256;28;20036;-48
2023/03/01 07:55:12;;;;;;;;;;;;;;;7.43;58.37;102812.09;5101270;28;20040;-48
2023/03/01 07:57:38;;;;;;;12.00;5.67;;;;;;;7.60;58.09;102813.38;5103355;28;19912;-48
2023/03/01 08:00:05;;;;;;;12.30;6.32;;;;;;;7.59;57.96;102827.66;5098531;28;20076;-48
2023/03/01 08:02:37;;;;;;;10.85;5.72;;;;;;;7.67;57.62;102819.03;5104056;28;20039;-49
2023/03/01 08:05:04;;;;;;;11.97;5.67;;;;;;;7.56;57.62;102819.91;5095969;28;20060;-50
2023/03/01 08:07:29;;;;;;;11.00;5.10;;;;;;;7.86;57.32;102818.38;5100774;28;20300;-49
2023/03/01 08:09:55;;;;;;;10.93;5.53;;;;;;;8.03;57.02;102818.75;5100495;28;20040;-49
2023/03/01 08:12:21;;;;;;;13.67;6.03;;;;;;;8.01;57.13;102823.34;5099493;28;20028;-48
2023/03/01 08:14:46;;;;;;;9.77;5.80;;;;;;;8.15;56.92;102817.72;5098763;28;20338;-50
2023/03/01 08:17:14;;;;;;;11.40;6.07;;;;;;;8.15;56.70;102814.19;5098926;28;20058;-47
2023/03/01 08:19:39;;;;;;;9.57;5.15;;;;;;;8.08;56.83;102819.22;5100377;28;20021;-49
2023/03/01 08:22:05;;;;;;;14.47;6.23;;;;;;;8.31;56.47;102816.41;5098388;28;20146;-49
2023/03/01 08:24:30;;;;;;;15.17;5.97;;;;;;;8.37;56.34;102810.53;5099169;28;20028;-50
2023/03/01 08:26:56;;;;;;;12.13;5.15;;;;;;;8.65;55.88;102810.84;5104878;28;20178;-47
2023/03/01 08:29:24;;;;;;;18.27;5.80;;;;;;;8.79;55.67;102801.63;5099084;28;20035;-48
2023/03/01 08:31:50;;;;;;;15.32;6.72;;;;;;;8.90;55.24;102806.00;5101295;28;20039;-49
2023/03/01 08:34:18;;;;;;;10.07;5.47;;;;;;;8.99;55.16;102804.34;5099519;28;20029;-52
2023/03/01 08:36:45;;;;;;;12.02;5.38;;;;;;;9.31;54.85;102809.47;5102953;28;20040;-51
2023/03/01 08:39:15;;;;;;;10.80;5.35;;;;;;;9.38;54.39;102806.25;5098863;28;20032;-47
2023/03/01 08:41:41;;;;;;;12.45;5.90;;;;;;;9.68;53.86;102807.97;5099351;28;20040;-53
2023/03/01 08:44:07;;;;;;;10.45;5.30;;;;;;;9.93;53.18;102802.19;5095675;28;20059;-51
2023/03/01 08:46:35;;;;;;;;;;;;;;;10.26;52.15;102808.00;5100601;28;20040;-46
2023/03/01 08:49:03;;;;;;;;;;;;;;;10.83;50.89;102807.13;5093821;28;19912;-47
2023/03/01 08:51:29;;;;;;;9.50;4.67;;;;;;;11.39;50.54;102804.38;5102063;28;19923;-51
2023/03/01 08:53:54;;;;;;;10.63;4.77;;;;;;;12.02;48.83;102787.34;5101407;28;20328;-50
2023/03/01 08:56:20;;;;;;;11.85;5.03;;;;;;;12.62;47.69;102799.09;5098271;28;20027;-47
2023/03/01 08:58:47;;;;;;;12.77;5.27;;;;;;;12.93;46.32;102792.34;5098548;28;20036;-47
2023/03/01 09:01:16;;;;;;;12.90;5.72;;;;;;;13.25;45.63;102796.09;5098421;28;20096;-49
2023/03/01 09:03:42;;;;;;;11.35;5.50;;;;;;;13.91;44.12;102790.78;5098396;28;20064;-50
2023/03/01 09:06:09;;;;;;;13.10;5.57;;;;;;;14.44;43.30;102798.38;5102820;28;20032;-50
2023/03/01 09:08:37;;;;;;;8.52;5.20;;;;;;;15.05;42.21;102797.81;5098005;28;20065;-51
2023/03/01 09:11:03;;;;;;;15.13;5.85;;;;;;;15.40;40.89;102799.25;5093655;28;20055;-52
2023/03/01 09:13:30;;;;;;;;;;;;;;;15.57;40.27;102794.56;5100165;28;20032;-47
2023/03/01 09:15:57;;;;;;;10.80;4.72;;;;;;;15.87;39.88;102790.09;5100900;28;19947;-51
2023/03/01 09:18:22;;;;;;;12.82;5.60;;;;;;;16.67;38.40;102781.50;5098687;28;20036;-48
2023/03/01 09:20:47;;;;;;;8.00;4.83;;;;;;;17.14;37.13;102783.94;5096161;28;20088;-49
2023/03/01 09:23:13;;;;;;;9.07;5.00;;;;;;;17.56;36.43;102782.25;5100870;28;20024;-48
2023/03/01 09:25:38;;;;;;;8.80;5.15;;;;;;;18.00;35.66;102777.56;5099083;28;20054;-52
2023/03/01 09:28:04;;;;;;;11.67;4.80;;;;;;;18.70;34.89;102781.28;5095731;28;20058;-51
2023/03/01 09:30:29;;;;;;;9.63;4.55;;;;;;;18.62;34.89;102776.88;5099946;28;20036;-51
2023/03/01 09:32:56;;;;;;;10.90;4.70;;;;;;;19.23;33.77;102777.91;5096051;28;20032;-52
2023/03/01 09:35:23;;;;;;;7.90;4.33;;;;;;;19.53;32.73;102769.38;5103343;28;20044;-49
2023/03/01 09:37:49;;;;;;;11.27;4.97;;;;;;;19.71;32.46;102767.91;5099942;28;20270;-49
2023/03/01 09:40:19;;;;;;;8.73;4.25;;;;;;;20.01;32.26;102770.19;5103445;28;20267;-48
2023/03/01 09:43:23;;;;;;;6.30;3.90;;;;;;;20.25;31.90;102770.53;5100810;28;20028;-51
2023/03/01 09:45:53;;;;;;;7.53;4.60;;;;;;;20.16;31.96;102756.34;5101290;28;20344;-50
2023/03/01 09:48:23;;;;;;;8.33;4.23;;;;;;;20.10;31.69;102755.34;5095829;28;20282;-47
2023/03/01 09:50:49;;;;;;;8.43;4.90;;;;;;;20.36;31.65;102761.75;5099034;28;20293;-50
2023/03/01 09:53:21;;;;;;;7.22;3.88;;;;;;;20.98;30.15;102752.25;5101690;28;20036;-51
2023/03/01 09:55:59;;;;;;;7.40;4.07;;;;;;;21.13;29.53;102765.53;5101235;28;20040;-53
2023/03/01 09:58:45;;;;;;;82.47;14.07;;;;;;;21.14;29.69;102753.63;5095695;28;20124;-49
2023/03/01 10:01:25;;;;;;;10.27;5.03;;;;;;;20.87;30.37;102759.22;5091683;28;20040;-52
2023/03/01 10:04:04;;;;;;;8.03;4.43;;;;;;;21.12;31.26;102755.72;5094443;28;20419;-51
2023/03/01 10:06:30;;;;;;;13.20;4.33;;;;;;;21.35;30.22;102764.13;5095314;28;20036;-52
2023/03/01 10:09:07;;;;;;;8.60;4.45;;;;;;;21.49;29.50;102758.59;5098554;28;20052;-50
2023/03/01 10:11:37;;;;;;;7.80;4.40;;;;;;;21.80;29.58;102764.19;5097347;28;20846;-50
2023/03/01 10:14:30;;;;;;;6.93;4.20;;;;;;;22.53;28.84;102757.13;5098429;28;20087;-51
2023/03/01 10:17:09;;;;;;;9.67;3.83;;;;;;;22.25;30.37;102757.63;5094550;28;20056;-50
2023/03/01 10:19:45;;;;;;;10.73;3.77;;;;;;;23.11;27.65;102776.63;5098653;28;20042;-52
2023/03/01 10:22:21;;;;;;;27.15;6.95;;;;;;;22.16;28.50;102774.28;5096708;28;20498;-50
2023/03/01 10:24:47;;;;;;;8.73;4.47;;;;;;;22.22;27.94;102760.81;5089147;28;20534;-51
2023/03/01 10:27:46;;;;;;;8.40;4.53;;;;;;;22.35;27.86;102749.75;5100710;28;20058;-49
2023/03/01 10:30:39;;;;;;;12.00;5.03;;;;;;;22.64;28.28;102750.06;5092254;28;20535;-54
2023/03/01 10:33:18;;;;;;;7.20;4.10;;;;;;;23.30;27.31;102755.59;5101629;28;20032;-50
2023/03/01 10:35:43;;;;;;;7.97;4.80;;;;;;;23.98;26.58;102748.91;5097335;28;20063;-51
2023/03/01 10:38:13;;;;;;;10.73;4.28;;;;;;;23.75;25.64;102745.13;5105071;28;20028;-52
2023/03/01 10:40:58;;;;;;;12.70;5.30;;;;;;;24.55;25.25;102730.97;5103755;28;20040;-50
2023/03/01 10:43:26;;;;;;;9.63;4.60;;;;;;;24.60;25.30;102733.78;5097010;28;20044;-51
2023/03/01 10:45:52;;;;;;;6.87;4.30;;;;;;;24.00;25.46;102727.69;5097715;28;20052;-49
2023/03/01 10:48:26;;;;;;;;;;;;;;;23.88;25.79;102720.31;5099737;28;20027;-52
2023/03/01 10:50:57;;;;;;;10.40;4.83;;;;;;;24.57;24.82;102710.50;5101432;28;20221;-50
2023/03/01 10:53:26;;;;;;;7.37;4.73;;;;;;;24.82;25.46;102708.50;5097966;28;20055;-52
2023/03/01 10:56:10;;;;;;;9.00;4.43;;;;;;;25.76;24.32;102717.06;5100312;28;20093;-51
2023/03/01 10:58:39;;;;;;;12.83;4.73;;;;;;;25.96;23.54;102715.69;5102577;28;20028;-51
2023/03/01 11:01:24;;;;;;;8.87;4.73;;;;;;;26.35;23.40;102721.13;5100912;28;20047;-52
2023/03/01 11:04:05;;;;;;;8.03;4.70;;;;;;;27.15;23.10;102711.44;5102266;28;20028;-49
2023/03/01 11:06:31;;;;;;;7.87;4.27;;;;;;;27.12;22.48;102717.47;5102942;28;20093;-52
2023/03/01 11:08:56;;;;;;;9.17;4.30;;;;;;;27.80;22.02;102714.06;5096867;28;20043;-49
2023/03/01 11:11:32;;;;;;;;;;;;;;;27.34;22.21;102712.69;5097104;28;20037;-55
2023/03/01 11:14:20;;;;;;;9.77;5.13;;;;;;;27.88;21.81;102709.97;5098529;28;19912;-53
2023/03/01 11:16:57;;;;;;;7.33;4.60;;;;;;;28.30;22.03;102699.94;5095519;28;20052;-53
2023/03/01 11:19:23;;;;;;;8.10;4.67;;;;;;;28.54;20.72;102700.28;5094387;28;20043;-54
2023/03/01 11:21:54;;;;;;;;;;;;;;;27.79;21.01;102701.41;5094404;28;20032;-52
2023/03/01 11:24:34;;;;;;;8.13;5.10;;;;;;;28.42;20.71;102699.69;5101154;28;19923;-51
2023/03/01 11:27:03;;;;;;;8.60;4.80;;;;;;;29.12;20.52;102701.94;5098523;28;20053;-52
2023/03/01 11:29:40;;;;;;;8.43;4.57;;;;;;;29.27;20.39;102692.84;5098038;28;20029;-55
2023/03/01 11:32:09;;;;;;;10.15;5.57;;;;;;;28.21;20.94;102698.84;5094783;28;20043;-51
2023/03/01 11:34:42;;;;;;;8.73;4.63;;;;;;;28.45;20.71;102696.41;5095503;28;20040;-51